Time;durP1;ratioP1;P1;durP2;ratioP2;P2;SDS_P1;SDS_P2;PMS_P1;PMS_P2;Temp;Humidity;BMP_temperature;BMP_pressure;BME280_temperature;BME280_humidity;BME280_pressure;Samples;Min_cycle;Max_cycle;Signal;HPM_P1;HPM_P2
2021/09/23 00:04:34;;;;;;;;;25.75;23.00;;;;;;;;6488321;46;9016;-61
2021/09/23 00:10:41;;;;;;;;;20.75;20.00;;;;;;;;6489013;46;9008;-62
2021/09/23 00:16:44;;;;;;;;;24.00;23.00;;;;;;;;6488769;39;9037;-59
2021/09/23 00:22:53;;;;;;;;;28.50;27.00;;;;;;;;6488935;39;8974;-61
2021/09/23 00:28:56;;;;;;;;;20.25;20.25;;;;;;;;6489193;39;8945;-61
2021/09/23 00:35:01;;;;;;;;;22.50;22.50;;;;;;;;6489040;39;9992;-60
2021/09/23 00:41:04;;;;;;;;;21.50;18.75;;;;;;;;6488678;39;9005;-60
2021/09/23 00:47:08;;;;;;;;;17.75;17.75;;;;;;;;6491014;39;8953;-61
2021/09/23 00:53:14;;;;;;;;;23.00;18.00;;;;;;;;6490551;39;8938;-62
2021/09/23 00:59:19;;;;;;;;;20.50;19.50;;;;;;;;6490321;39;8981;-61
2021/09/23 01:05:21;;;;;;;;;21.75;20.25;;;;;;;;6490074;31;8990;-61
2021/09/23 01:11:28;;;;;;;;;16.25;16.25;;;;;;;;6490376;46;8971;-61
2021/09/23 01:17:34;;;;;;;;;21.75;19.00;;;;;;;;6490566;46;9146;-62
2021/09/23 01:23:38;;;;;;;;;17.50;17.50;;;;;;;;6489974;46;9017;-62
2021/09/23 01:29:44;;;;;;;;;21.00;19.00;;;;;;;;6490196;31;9117;-61
2021/09/23 01:35:48;;;;;;;;;17.75;16.00;;;;;;;;6489467;46;9125;-61
2021/09/23 01:41:51;;;;;;;;;20.25;18.50;;;;;;;;6489190;46;8990;-61
2021/09/23 01:48:00;;;;;;;;;22.75;19.50;;;;;;;;6489817;46;8973;-63
2021/09/23 01:54:10;;;;;;;;;20.25;19.50;;;;;;;;6489318;39;8993;-61
2021/09/23 02:00:16;;;;;;;;;18.00;16.50;;;;;;;;6489883;39;8946;-61
2021/09/23 02:06:23;;;;;;;;;21.25;19.50;;;;;;;;6489708;46;9016;-62
2021/09/23 02:12:26;;;;;;;;;19.75;19.75;;;;;;;;6489823;39;8933;-61
2021/09/23 02:18:35;;;;;;;;;18.75;15.75;;;;;;;;6490085;46;9016;-61
2021/09/23 02:24:40;;;;;;;;;20.50;16.50;;;;;;;;6489921;31;9827;-61
2021/09/23 02:30:43;;;;;;;;;20.50;14.75;;;;;;;;6489166;39;8973;-61
2021/09/23 02:36:45;;;;;;;;;12.33;12.00;;;;;;;;6489008;39;8946;-61
2021/09/23 02:42:49;;;;;;;;;19.25;16.25;;;;;;;;6489734;39;9100;-60
2021/09/23 02:48:55;;;;;;;;;18.00;15.75;;;;;;;;6489130;39;8996;-61
2021/09/23 02:54:58;;;;;;;;;16.25;15.00;;;;;;;;6488663;46;8925;-61
2021/09/23 03:01:01;;;;;;;;;17.00;16.50;;;;;;;;6488467;39;9003;-61
2021/09/23 03:07:05;;;;;;;;;16.50;14.25;;;;;;;;6488234;39;8941;-60
2021/09/23 03:13:08;;;;;;;;;21.75;19.00;;;;;;;;6488874;31;9050;-61
2021/09/23 03:19:12;;;;;;;;;22.25;19.25;;;;;;;;6489296;39;8987;-62
2021/09/23 03:25:14;;;;;;;;;24.25;23.00;;;;;;;;6489466;39;8994;-62
2021/09/23 03:31:18;;;;;;;;;27.75;27.25;;;;;;;;6489765;39;8949;-61
2021/09/23 03:37:23;;;;;;;;;31.00;29.00;;;;;;;;6488368;46;9013;-61
2021/09/23 03:43:26;;;;;;;;;33.00;29.75;;;;;;;;6488874;46;9012;-62
2021/09/23 03:49:29;;;;;;;;;31.25;26.75;;;;;;;;6488766;39;9601;-61
2021/09/23 03:55:32;;;;;;;;;20.50;18.50;;;;;;;;6488676;39;9008;-61
2021/09/23 04:01:41;;;;;;;;;26.00;24.75;;;;;;;;6464100;39;9018;-63
2021/09/23 04:07:47;;;;;;;;;28.25;24.25;;;;;;;;6486931;39;8991;-62
2021/09/23 04:13:50;;;;;;;;;24.50;22.00;;;;;;;;6490771;39;8937;-62
